ACF weather

Brisbane Archerfield Airport
Brisbane, Queensland, Australia

Public forecast

Using degrees Celsius for public forecast. Weather courtesy of forecast.io.

METAR (pilot weather report)

Closest report is Brisbane International Airport, 12.6 nm (23.3 km) NNE. Retrieved 2018/09/23 21:00 UTC (27 minutes ago):

YBBN 232100Z 20006KT 9999 FEW035 17/13 Q1023 NOSIG

TAF (pilot weather forecast)

Closest forecast is Brisbane International Airport, 12.6 nm (23.3 km) NNE. Retrieved 2018/09/23 18:00 UTC (3 hours ago):

TAF YBBN 231700Z 2318/2424 19005KT 9999 FEW025 SCT035 FM240100 10010KT 9999 SCT030 SCT040 FM240400 13020KT 9999 -SHRA SCT030 SCT040 FM240800 15014KT 9999 -SHRA SCT025 SCT035 FM241400 15010KT 9999 -SHRA SCT025 BKN030 FM241700 19005KT 9999 -SHRA SCT025 BKN030 FM242200 13012KT 9999 -SHRA SCT030